Terminal Aerodrome Forecast
Issued by NWS Charleston, WV

Current Version | Previous Version | Graphics & Text | Print | Product List | Glossary On
Versions: 1 2 3 4 5 6 7 8 9 10 11 12 13 14 15 16 17 18 19 20 21 22 23 24 25
798
FTUS41 KRLX 210322 AAB
TAFBKW
TAF AMD
KBKW 210322Z 2103/2124 13008KT P6SM BKN012
      TEMPO 2103/2107 BKN008
     FM210700 14012G20KT P6SM BKN010
     FM211700 15010G17KT 6SM SHRA OVC015
     FM211800 15009G15KT 5SM SHRA OVC025
     FM212300 15008KT 2SM SHRA OVC025=

USA.gov is the U.S. government's official web portal to all federal, state and local government web resources and services.